Who's Online

We have 3 guests online

Aviation WX

[source: ADDS]
METAR
KIAD 271952Z 19009G14KT 10SM SCT055TCU BKN250 31/19 A3004 RMK AO2 SLP170 TCU E T03110189 =
TAF
KIAD 271737Z 2718/2824 24005KT P6SM FEW040 FM272200 18007KT P6SM VCTS SCT040CB FM280100 18006KT P6SM FEW040 FM281000 19005KT 4SM BR SKC FM282000 18009KT P6SM SCT250 =
SR / SS: 23:32 / 14:05 UTC (Washington-Dulles 2016-05-27)

JoomlaWatch Agent

Home Products and Services

This section describes Multilink Systems products and services

 

 

Under construction Please Standby